Norwich, North Dakota
Current Conditions -  °F | °C
As of 10:54 AM on Tuesday 21 Oct 2014 (Local Time) from KMOT Reporting Station
Clear Clear  
Wind Chill: 58°   Ceiling: Unl
Heat Index: 58°   Visibility: 10mi
Dew Point: 37°   Wind: 10mph
Humidity: 46%   Direction: 150°SSE
Pressure: 29.77"   Gusts: NA
Location:  48.25°N, 100.99°W
Report Text: KMOT 211554Z 15009KT 10SM CLR 14/03 A2977 RMK AO2 SLP086 T01440028
Loading
Personal Weather Stations






























Interactive Weather Map
Tropical Storm Tracking
New forecast layout! Learn more

10-Day Weather Forecast

Advertisements
Track Severe Weather on mobile